createdAt,value
2019-04-06T00:00:12.798Z,18.53
2019-04-06T00:02:40.683Z,14.90
2019-04-06T00:05:08.748Z,19.30
2019-04-06T00:07:36.631Z,19.20
2019-04-06T00:10:04.787Z,17.93
2019-04-06T00:12:32.564Z,15.37
2019-04-06T00:15:00.440Z,16.83
2019-04-06T00:17:28.227Z,16.87
2019-04-06T00:19:56.176Z,18.77
2019-04-06T00:22:23.925Z,15.87
2019-04-06T00:24:51.777Z,15.70
2019-04-06T00:27:19.615Z,17.73
2019-04-06T00:29:47.387Z,15.40
2019-04-06T00:32:34.757Z,16.43
2019-04-06T00:35:02.640Z,16.43
2019-04-06T00:37:30.384Z,15.80
2019-04-06T00:39:58.236Z,17.30
2019-04-06T00:42:26.137Z,22.00
2019-04-06T00:44:53.953Z,19.10
2019-04-06T00:47:21.902Z,16.67
2019-04-06T00:49:49.735Z,17.73
2019-04-06T00:52:17.488Z,15.77
2019-04-06T00:54:45.355Z,15.63
2019-04-06T00:57:13.239Z,17.13
2019-04-06T00:59:40.984Z,17.53
2019-04-06T01:02:08.934Z,19.60
2019-04-06T01:04:36.894Z,17.93
2019-04-06T01:07:04.767Z,16.87
2019-04-06T01:09:32.715Z,18.40
2019-04-06T01:12:00.652Z,19.80
2019-04-06T01:14:28.446Z,18.60
2019-04-06T01:16:56.276Z,17.53
2019-04-06T01:19:24.064Z,21.20
2019-04-06T01:21:51.941Z,14.70
2019-04-06T01:24:19.800Z,14.63
2019-04-06T01:26:47.749Z,19.13
2019-04-06T01:29:15.593Z,17.67
2019-04-06T01:31:43.462Z,16.63
2019-04-06T01:34:11.315Z,20.90
2019-04-06T01:36:39.184Z,15.90
2019-04-06T01:39:06.952Z,14.87
2019-04-06T01:41:34.796Z,17.70
2019-04-06T01:44:02.563Z,21.13
2019-04-06T01:46:30.415Z,16.00
2019-04-06T01:48:58.446Z,17.60
2019-04-06T01:51:26.227Z,17.50
2019-04-06T01:53:54.334Z,15.27
2019-04-06T01:56:22.188Z,15.90
2019-04-06T01:58:50.052Z,18.30
2019-04-06T02:01:31.134Z,15.33
2019-04-06T02:03:59.011Z,18.33
2019-04-06T02:06:26.836Z,14.77
2019-04-06T02:08:54.759Z,13.73
2019-04-06T02:11:22.573Z,17.43
2019-04-06T02:13:50.435Z,16.07
2019-04-06T02:16:18.303Z,16.43
2019-04-06T02:18:46.055Z,16.27
2019-04-06T02:21:13.963Z,19.70
2019-04-06T02:23:41.773Z,16.30
2019-04-06T02:26:09.627Z,15.37
2019-04-06T02:28:37.487Z,18.27
2019-04-06T02:31:11.933Z,13.43
2019-04-06T02:33:46.937Z,13.10
2019-04-06T02:36:37.309Z,19.20
2019-04-06T02:39:42.743Z,16.27
2019-04-06T02:42:23.071Z,15.47
2019-04-06T02:44:50.936Z,14.97
2019-04-06T02:47:18.788Z,14.30
2019-04-06T02:49:46.562Z,15.53
2019-04-06T02:52:14.397Z,15.27
2019-04-06T02:54:42.274Z,15.07
2019-04-06T02:57:10.252Z,14.63
2019-04-06T02:59:38.088Z,16.40
2019-04-06T03:02:05.850Z,14.27
2019-04-06T03:04:33.717Z,15.90
2019-04-06T03:07:01.556Z,14.50
2019-04-06T03:09:29.395Z,12.93
2019-04-06T03:11:57.301Z,15.47
2019-04-06T03:14:25.107Z,15.60
2019-04-06T03:16:52.929Z,13.40
2019-04-06T03:19:20.885Z,13.67
2019-04-06T03:21:48.890Z,15.73
2019-04-06T03:24:16.684Z,14.93
2019-04-06T03:26:59.265Z,16.27
2019-04-06T03:29:14.329Z,14.90
2019-04-06T03:31:42.220Z,11.03
2019-04-06T03:34:10.094Z,13.00
2019-04-06T03:36:37.933Z,17.67
2019-04-06T03:39:06.134Z,14.17
2019-04-06T03:41:34.096Z,10.27
2019-04-06T03:44:02.016Z,13.17
2019-04-06T03:46:29.912Z,12.20
2019-04-06T03:48:57.729Z,13.63
2019-04-06T03:51:25.580Z,11.87
2019-04-06T03:53:53.478Z,15.47
2019-04-06T03:56:21.629Z,14.93
2019-04-06T03:58:51.941Z,13.10
2019-04-06T04:01:19.124Z,12.53
2019-04-06T04:03:46.987Z,12.43
2019-04-06T04:06:14.930Z,14.53
2019-04-06T04:08:42.779Z,15.10
2019-04-06T04:11:10.661Z,14.73
2019-04-06T04:13:38.789Z,14.67
2019-04-06T04:16:06.769Z,14.07
2019-04-06T04:18:34.787Z,11.73
2019-04-06T04:21:02.809Z,13.70
2019-04-06T04:23:30.678Z,11.93
2019-04-06T04:25:58.528Z,12.90
2019-04-06T04:28:26.388Z,12.30
2019-04-06T04:30:54.251Z,10.97
2019-04-06T04:33:22.114Z,14.60
2019-04-06T04:35:49.952Z,12.87
2019-04-06T04:38:17.801Z,12.17
2019-04-06T04:40:45.673Z,9.70
2019-04-06T04:43:13.514Z,11.07
2019-04-06T04:45:41.375Z,12.13
2019-04-06T04:48:09.251Z,12.37
2019-04-06T04:50:37.108Z,13.90
2019-04-06T04:53:04.875Z,16.70
2019-04-06T04:55:33.829Z,10.13
2019-04-06T04:58:01.656Z,11.13
2019-04-06T05:00:29.451Z,10.70
2019-04-06T05:02:57.270Z,13.30
2019-04-06T05:05:25.222Z,13.63
2019-04-06T05:07:53.090Z,13.70
2019-04-06T05:10:20.947Z,11.53
2019-04-06T05:12:48.717Z,13.73
2019-04-06T05:15:20.219Z,10.73
2019-04-06T05:17:47.978Z,12.67
2019-04-06T05:20:15.847Z,11.77
2019-04-06T05:22:43.618Z,15.10
2019-04-06T05:25:11.485Z,12.07
2019-04-06T05:27:50.777Z,12.63
2019-04-06T05:30:09.865Z,15.20
2019-04-06T05:32:37.625Z,14.63
2019-04-06T05:35:05.977Z,13.63
2019-04-06T05:37:33.847Z,12.00
2019-04-06T05:40:01.711Z,11.83
2019-04-06T05:42:29.553Z,14.23
2019-04-06T05:44:57.476Z,15.53
2019-04-06T05:47:25.243Z,12.90
2019-04-06T05:49:53.133Z,15.53
2019-04-06T05:52:21.075Z,14.07
2019-04-06T05:54:48.848Z,12.00
2019-04-06T05:57:16.719Z,13.80
2019-04-06T05:59:44.471Z,12.33
2019-04-06T06:02:12.225Z,12.17
2019-04-06T06:04:40.605Z,13.60
2019-04-06T06:07:09.064Z,15.87
2019-04-06T06:09:37.086Z,13.27
2019-04-06T06:12:04.964Z,13.10
2019-04-06T06:14:33.005Z,10.37
2019-04-06T06:17:01.158Z,13.80
2019-04-06T06:19:29.048Z,12.60
2019-04-06T06:21:56.955Z,14.27
2019-04-06T06:24:24.967Z,10.20
2019-04-06T06:26:52.920Z,11.83
2019-04-06T06:29:20.861Z,9.97
2019-04-06T06:31:48.733Z,12.17
2019-04-06T06:34:16.507Z,11.17
2019-04-06T06:36:44.413Z,11.17
2019-04-06T06:39:12.316Z,11.50
2019-04-06T06:41:40.223Z,12.00
2019-04-06T06:44:08.083Z,10.63
2019-04-06T06:46:35.928Z,12.50
2019-04-06T06:49:03.900Z,12.47
2019-04-06T06:51:31.738Z,12.67
2019-04-06T06:53:59.580Z,12.13
2019-04-06T06:56:27.599Z,13.63
2019-04-06T06:58:55.466Z,11.87
2019-04-06T07:01:23.346Z,12.60
2019-04-06T07:03:51.116Z,11.93
2019-04-06T07:06:19.024Z,11.87
2019-04-06T07:08:46.934Z,12.27
2019-04-06T07:11:14.748Z,12.63
2019-04-06T07:13:42.580Z,14.63
2019-04-06T07:16:10.878Z,12.40
2019-04-06T07:18:38.854Z,13.37
2019-04-06T07:21:06.916Z,13.10
2019-04-06T07:23:34.788Z,13.63
2019-04-06T07:26:03.449Z,14.17
2019-04-06T07:28:37.540Z,13.47
2019-04-06T07:31:01.037Z,12.87
2019-04-06T07:33:28.888Z,15.40
2019-04-06T07:35:56.881Z,14.53
2019-04-06T07:38:24.711Z,14.40
2019-04-06T07:40:52.563Z,17.50
2019-04-06T07:43:20.831Z,14.97
2019-04-06T07:45:48.679Z,13.50
2019-04-06T07:48:16.531Z,16.67
2019-04-06T07:50:44.461Z,12.83
2019-04-06T07:53:12.327Z,14.47
2019-04-06T07:55:40.178Z,15.53
2019-04-06T07:58:08.037Z,13.33
2019-04-06T08:00:36.012Z,15.37
2019-04-06T08:03:04.028Z,13.93
2019-04-06T08:05:44.901Z,14.53
2019-04-06T08:08:12.852Z,13.20
2019-04-06T08:10:40.871Z,16.23
2019-04-06T08:13:08.827Z,17.10
2019-04-06T08:15:36.734Z,13.10
2019-04-06T08:18:04.672Z,14.63
2019-04-06T08:20:32.615Z,16.53
2019-04-06T08:23:00.444Z,16.13
2019-04-06T08:25:28.303Z,17.37
2019-04-06T08:27:56.098Z,15.50
2019-04-06T08:30:24.165Z,14.97
2019-04-06T08:32:52.169Z,15.47
2019-04-06T08:35:26.188Z,12.43
2019-04-06T08:37:49.795Z,12.93
2019-04-06T08:40:17.732Z,16.13
2019-04-06T08:42:45.674Z,16.77
2019-04-06T08:45:14.189Z,14.97
2019-04-06T08:47:42.371Z,15.10
2019-04-06T08:50:10.453Z,17.33
2019-04-06T08:52:38.307Z,16.63
2019-04-06T08:55:06.275Z,14.30
2019-04-06T08:57:34.172Z,14.60
2019-04-06T09:00:02.124Z,14.47
2019-04-06T09:02:30.085Z,12.63
2019-04-06T09:04:57.936Z,16.00
2019-04-06T09:07:25.897Z,16.00
2019-04-06T09:09:53.779Z,13.33
2019-04-06T09:12:21.660Z,14.10
2019-04-06T09:14:49.760Z,12.97
2019-04-06T09:17:17.880Z,13.70
2019-04-06T09:19:45.791Z,12.73
2019-04-06T09:22:13.815Z,12.70
2019-04-06T09:24:41.616Z,13.37
2019-04-06T09:27:09.488Z,12.47
2019-04-06T09:29:37.347Z,12.90
2019-04-06T09:32:05.230Z,12.87
2019-04-06T09:34:33.147Z,12.27
2019-04-06T09:37:01.136Z,12.57
2019-04-06T09:39:29.300Z,14.10
2019-04-06T09:41:57.243Z,13.27
2019-04-06T09:44:37.559Z,12.30
2019-04-06T09:47:12.531Z,15.67
2019-04-06T09:50:02.926Z,13.73
2019-04-06T09:52:48.359Z,11.57
2019-04-06T09:55:30.517Z,12.97
2019-04-06T09:58:11.554Z,14.87
2019-04-06T10:00:45.545Z,12.80
2019-04-06T10:03:47.967Z,17.70
2019-04-06T10:06:37.558Z,12.47
2019-04-06T10:09:34.831Z,13.53
2019-04-06T10:12:34.575Z,13.60
2019-04-06T10:15:30.903Z,15.70
2019-04-06T10:18:33.393Z,13.10
2019-04-06T10:21:14.525Z,12.10
2019-04-06T10:24:02.165Z,14.67
2019-04-06T10:26:48.356Z,14.13
2019-04-06T10:29:47.726Z,11.57
2019-04-06T10:32:29.793Z,12.77
2019-04-06T10:35:09.288Z,14.03
2019-04-06T10:37:59.976Z,15.00
2019-04-06T10:40:54.346Z,12.57
2019-04-06T10:43:34.070Z,15.27
2019-04-06T10:46:26.789Z,14.60
2019-04-06T10:49:32.352Z,13.10
2019-04-06T10:52:37.454Z,16.00
2019-04-06T10:55:29.341Z,20.30
2019-04-06T10:58:15.375Z,22.17
2019-04-06T11:01:09.261Z,21.50
2019-04-06T11:03:59.740Z,21.07
2019-04-06T11:06:43.295Z,17.90
2019-04-06T11:09:26.440Z,17.17
2019-04-06T11:12:12.776Z,17.07
2019-04-06T11:15:06.156Z,18.17
2019-04-06T11:17:53.565Z,15.57
2019-04-06T11:20:39.716Z,17.33
2019-04-06T11:23:25.924Z,17.20
2019-04-06T11:26:03.842Z,15.57
2019-04-06T11:28:51.219Z,16.60
2019-04-06T11:31:35.028Z,16.83
2019-04-06T11:34:10.804Z,13.77
2019-04-06T11:37:04.244Z,18.43
2019-04-06T11:39:40.050Z,14.53
2019-04-06T11:42:23.028Z,13.60
2019-04-06T11:45:19.722Z,14.07
2019-04-06T11:48:12.836Z,13.57
2019-04-06T11:51:00.976Z,14.03
2019-04-06T11:53:46.048Z,14.00
2019-04-06T11:56:39.589Z,15.57
2019-04-06T11:59:19.030Z,15.13
2019-04-06T12:02:00.356Z,12.40
2019-04-06T12:04:43.744Z,12.70
2019-04-06T12:07:17.460Z,12.97
2019-04-06T12:09:54.851Z,14.43
2019-04-06T12:12:42.253Z,12.23
2019-04-06T12:15:28.388Z,13.13
2019-04-06T12:18:17.586Z,11.47
2019-04-06T12:21:08.601Z,12.90
2019-04-06T12:23:54.189Z,13.00
2019-04-06T12:26:44.442Z,14.53
2019-04-06T12:29:31.872Z,15.07
2019-04-06T12:32:17.998Z,10.77
2019-04-06T12:34:56.449Z,12.23
2019-04-06T12:37:30.095Z,12.70
2019-04-06T12:40:21.896Z,12.27
2019-04-06T12:43:09.346Z,11.33
2019-04-06T12:45:55.242Z,11.73
2019-04-06T12:48:45.810Z,11.53
2019-04-06T12:51:33.981Z,11.83
2019-04-06T12:54:24.399Z,10.90
2019-04-06T12:57:15.780Z,10.87
2019-04-06T12:59:52.668Z,10.80
2019-04-06T13:02:38.612Z,11.53
2019-04-06T13:05:24.660Z,12.77
2019-04-06T13:08:14.996Z,13.30
2019-04-06T13:11:01.177Z,11.43
2019-04-06T13:13:41.650Z,12.20
2019-04-06T13:16:35.256Z,13.93
2019-04-06T13:19:25.738Z,12.27
2019-04-06T13:22:16.174Z,13.33
2019-04-06T13:25:09.592Z,13.37
2019-04-06T13:27:55.564Z,12.93
2019-04-06T13:30:45.887Z,12.80
2019-04-06T13:33:35.116Z,17.63
2019-04-06T13:36:10.435Z,15.13
2019-04-06T13:39:07.931Z,16.80
2019-04-06T13:41:48.825Z,13.67
2019-04-06T13:44:36.231Z,15.03
2019-04-06T13:47:32.521Z,14.03
2019-04-06T13:50:12.239Z,14.33
2019-04-06T13:53:08.969Z,15.80
2019-04-06T13:56:05.400Z,18.57
2019-04-06T13:58:51.160Z,18.77
2019-04-06T14:01:44.876Z,16.17
2019-04-06T14:04:35.176Z,15.97
2019-04-06T14:07:18.920Z,16.93
2019-04-06T14:10:02.227Z,17.97
2019-04-06T14:13:01.559Z,18.83
2019-04-06T14:15:52.000Z,15.40
2019-04-06T14:18:51.495Z,15.63
2019-04-06T14:21:41.698Z,17.53
2019-04-06T14:24:19.511Z,15.77
2019-04-06T14:27:09.850Z,17.13
2019-04-06T14:29:55.180Z,15.50
2019-04-06T14:32:57.730Z,21.13
2019-04-06T14:35:51.108Z,15.57
2019-04-06T14:38:47.801Z,15.77
2019-04-06T14:41:33.688Z,17.27
2019-04-06T14:44:21.175Z,17.13
2019-04-06T14:47:15.255Z,16.53
2019-04-06T14:49:55.406Z,17.43
2019-04-06T14:52:43.079Z,16.50
2019-04-06T14:55:30.501Z,19.13
2019-04-06T14:58:16.571Z,15.83
2019-04-06T15:00:52.087Z,16.67
2019-04-06T15:03:48.400Z,19.00
2019-04-06T15:06:40.760Z,18.70
2019-04-06T15:09:37.112Z,16.53
2019-04-06T15:12:36.747Z,17.77
2019-04-06T15:15:22.688Z,16.77
2019-04-06T15:18:08.212Z,16.13
2019-04-06T15:21:01.669Z,17.67
2019-04-06T15:23:52.040Z,15.30
2019-04-06T15:26:32.769Z,15.60
2019-04-06T15:29:25.719Z,17.40
2019-04-06T15:32:27.992Z,16.90
2019-04-06T15:35:12.669Z,16.03
2019-04-06T15:37:46.635Z,18.47
2019-04-06T15:40:32.109Z,15.33
2019-04-06T15:43:25.643Z,16.23
2019-04-06T15:46:02.778Z,16.50
2019-04-06T15:48:48.859Z,17.03
2019-04-06T15:51:23.442Z,17.43
2019-04-06T15:54:10.858Z,15.70
2019-04-06T15:56:52.963Z,14.60
2019-04-06T15:59:43.235Z,17.93
2019-04-06T16:02:48.640Z,17.43
2019-04-06T16:05:33.302Z,13.33
2019-04-06T16:08:26.736Z,16.53
2019-04-06T16:11:23.640Z,16.47
2019-04-06T16:14:23.143Z,16.63
2019-04-06T16:17:13.553Z,15.30
2019-04-06T16:19:50.849Z,15.43
2019-04-06T16:22:53.512Z,16.03
2019-04-06T16:25:36.167Z,18.30
2019-04-06T16:28:23.589Z,16.13
2019-04-06T16:31:11.307Z,16.23
2019-04-06T16:33:45.166Z,15.47
2019-04-06T16:36:31.005Z,16.37
2019-04-06T16:39:27.945Z,13.87
2019-04-06T16:42:12.116Z,16.33
2019-04-06T16:44:49.764Z,13.93
2019-04-06T16:47:40.193Z,17.10
2019-04-06T16:50:32.275Z,14.57
2019-04-06T16:53:14.964Z,16.07
2019-04-06T16:56:05.593Z,16.37
2019-04-06T16:58:52.948Z,14.90
2019-04-06T17:01:38.906Z,16.17
2019-04-06T17:04:26.413Z,14.77
2019-04-06T17:07:12.124Z,14.33
2019-04-06T17:10:02.464Z,12.63
2019-04-06T17:12:48.412Z,14.80
2019-04-06T17:15:35.107Z,10.87
2019-04-06T17:18:14.459Z,12.13
2019-04-06T17:21:03.443Z,16.63
2019-04-06T17:23:59.985Z,14.20
2019-04-06T17:26:46.501Z,12.33
2019-04-06T17:29:24.635Z,13.47
2019-04-06T17:32:07.453Z,13.20
2019-04-06T17:34:55.231Z,12.53
2019-04-06T17:37:29.964Z,11.83
2019-04-06T17:40:29.081Z,14.10
2019-04-06T17:43:11.191Z,11.40
2019-04-06T17:46:04.681Z,10.43
2019-04-06T17:48:51.005Z,10.33
2019-04-06T17:51:38.930Z,9.93
2019-04-06T17:54:32.340Z,13.63
2019-04-06T17:57:19.673Z,10.27
2019-04-06T18:00:06.162Z,14.50
2019-04-06T18:02:56.709Z,11.97
2019-04-06T18:05:40.107Z,11.23
2019-04-06T18:08:39.426Z,11.30
2019-04-06T18:11:28.016Z,10.03
2019-04-06T18:13:55.795Z,11.93
2019-04-06T18:16:26.804Z,11.90
2019-04-06T18:18:54.647Z,11.20
2019-04-06T18:21:22.499Z,11.37
2019-04-06T18:23:50.675Z,13.27
2019-04-06T18:26:19.216Z,11.27
2019-04-06T18:28:47.167Z,13.37
2019-04-06T18:31:43.630Z,11.40
2019-04-06T18:34:11.525Z,10.90
2019-04-06T18:36:59.011Z,12.67
2019-04-06T18:39:27.687Z,13.30
2019-04-06T18:41:55.721Z,14.67
2019-04-06T18:44:24.041Z,12.10
2019-04-06T18:46:52.007Z,13.23
2019-04-06T18:49:20.454Z,14.90
2019-04-06T18:51:48.400Z,12.33
2019-04-06T18:54:16.520Z,12.77
2019-04-06T18:56:44.427Z,13.20
2019-04-06T18:59:12.941Z,13.67
2019-04-06T19:01:40.848Z,10.43
2019-04-06T19:04:08.780Z,13.43
2019-04-06T19:06:36.644Z,11.33
2019-04-06T19:09:14.773Z,13.07
2019-04-06T19:11:37.050Z,11.83
2019-04-06T19:14:05.016Z,12.47
2019-04-06T19:16:33.077Z,13.70
2019-04-06T19:19:01.351Z,12.00
2019-04-06T19:21:30.906Z,18.80
2019-04-06T19:23:58.865Z,12.73
2019-04-06T19:26:26.784Z,12.20
2019-04-06T19:28:55.288Z,12.77
2019-04-06T19:31:23.302Z,12.03
2019-04-06T19:33:51.223Z,14.17
2019-04-06T19:36:19.382Z,12.73
2019-04-06T19:38:47.391Z,14.50
2019-04-06T19:41:15.694Z,12.23
2019-04-06T19:43:44.295Z,14.17
2019-04-06T19:46:12.373Z,12.30
2019-04-06T19:48:40.748Z,15.63
2019-04-06T19:51:09.182Z,10.37
2019-04-06T19:53:37.203Z,14.20
2019-04-06T19:56:05.416Z,14.50
2019-04-06T19:58:33.539Z,13.70
2019-04-06T20:01:01.627Z,13.13
2019-04-06T20:03:35.954Z,17.07
2019-04-06T20:05:59.285Z,14.63
2019-04-06T20:08:27.232Z,15.73
2019-04-06T20:10:55.386Z,13.73
2019-04-06T20:13:23.346Z,14.80
2019-04-06T20:15:51.815Z,14.03
2019-04-06T20:18:19.798Z,14.33
2019-04-06T20:20:47.932Z,16.50
2019-04-06T20:23:17.677Z,12.83
2019-04-06T20:25:45.598Z,12.90
2019-04-06T20:28:13.536Z,14.53
2019-04-06T20:30:41.559Z,14.07
2019-04-06T20:33:09.700Z,10.30
2019-04-06T20:35:37.663Z,10.57
2019-04-06T20:38:05.482Z,14.30
2019-04-06T20:40:33.587Z,12.80
2019-04-06T20:43:01.744Z,12.63
2019-04-06T20:45:30.061Z,15.97
2019-04-06T20:47:58.502Z,13.20
2019-04-06T20:50:26.559Z,12.47
2019-04-06T20:52:54.955Z,12.80
2019-04-06T20:55:23.313Z,11.87
2019-04-06T20:57:51.701Z,13.70
2019-04-06T21:00:20.429Z,15.83
2019-04-06T21:02:48.668Z,13.87
2019-04-06T21:05:16.744Z,12.47
2019-04-06T21:07:44.931Z,15.77
2019-04-06T21:10:13.662Z,11.73
2019-04-06T21:12:42.137Z,12.33
2019-04-06T21:15:19.019Z,13.23
2019-04-06T21:17:39.930Z,12.60
2019-04-06T21:20:08.025Z,13.73
2019-04-06T21:22:36.133Z,14.00
2019-04-06T21:25:04.660Z,11.57
2019-04-06T21:27:32.549Z,14.03
2019-04-06T21:30:00.721Z,13.10
2019-04-06T21:32:29.207Z,12.90
2019-04-06T21:34:57.119Z,14.27
2019-04-06T21:37:25.445Z,13.83
2019-04-06T21:39:53.479Z,10.93
2019-04-06T21:42:21.934Z,13.10
2019-04-06T21:44:50.316Z,14.20
2019-04-06T21:47:18.475Z,11.73
2019-04-06T21:49:46.438Z,11.83
2019-04-06T21:52:14.368Z,14.20
2019-04-06T21:54:42.336Z,12.93
2019-04-06T21:57:10.584Z,12.50
2019-04-06T21:59:38.651Z,12.33
2019-04-06T22:02:07.226Z,14.60
2019-04-06T22:04:35.249Z,12.43
2019-04-06T22:07:03.690Z,14.23
2019-04-06T22:09:32.318Z,13.40
2019-04-06T22:12:00.379Z,11.73
2019-04-06T22:14:28.382Z,12.10
2019-04-06T22:16:57.417Z,14.17
2019-04-06T22:19:25.341Z,12.90
2019-04-06T22:21:53.248Z,11.90
2019-04-06T22:24:21.343Z,14.47
2019-04-06T22:26:49.655Z,12.07
2019-04-06T22:29:18.450Z,13.60
2019-04-06T22:31:46.414Z,12.77
2019-04-06T22:34:14.344Z,12.43
2019-04-06T22:36:42.428Z,10.80
2019-04-06T22:39:11.057Z,12.30
2019-04-06T22:41:39.024Z,12.63
2019-04-06T22:44:07.373Z,12.40
2019-04-06T22:46:35.425Z,12.20
2019-04-06T22:49:03.463Z,14.03
2019-04-06T22:51:31.392Z,14.27
2019-04-06T22:53:59.295Z,13.33
2019-04-06T22:56:27.233Z,12.73
2019-04-06T22:58:55.176Z,11.50
2019-04-06T23:01:24.122Z,12.27
2019-04-06T23:04:12.031Z,14.03
2019-04-06T23:06:43.207Z,13.87
2019-04-06T23:09:11.232Z,12.57
2019-04-06T23:11:39.108Z,15.30
2019-04-06T23:14:07.446Z,12.90
2019-04-06T23:16:35.575Z,12.43
2019-04-06T23:19:04.061Z,12.97
2019-04-06T23:21:31.944Z,12.03
2019-04-06T23:23:59.895Z,15.47
2019-04-06T23:26:27.808Z,9.80
2019-04-06T23:28:55.662Z,12.87
2019-04-06T23:31:23.615Z,10.77
2019-04-06T23:33:51.733Z,13.47
2019-04-06T23:36:19.607Z,11.13
2019-04-06T23:38:47.441Z,11.97
2019-04-06T23:41:15.347Z,13.07
2019-04-06T23:43:43.842Z,13.03
2019-04-06T23:46:11.781Z,13.67
2019-04-06T23:48:39.815Z,11.93
2019-04-06T23:51:07.992Z,11.77
2019-04-06T23:53:36.048Z,12.23
2019-04-06T23:56:04.335Z,12.47
2019-04-06T23:58:32.542Z,12.73
